sensor_id;sensor_type;location;lat;lon;timestamp;pressure;altitude;pressure_sealevel;temperature;humidity
51468;BME280;37545;45.302;-122.946;2023-05-25T00:00:30;100748.06;;;27.49;29.82
51468;BME280;37545;45.302;-122.946;2023-05-25T00:02:59;100750.53;;;27.54;30.66
51468;BME280;37545;45.302;-122.946;2023-05-25T00:05:29;100749.47;;;27.58;30.74
51468;BME280;37545;45.302;-122.946;2023-05-25T00:07:57;100747.28;;;27.46;28.22
51468;BME280;37545;45.302;-122.946;2023-05-25T00:10:26;100755.69;;;27.35;29.00
51468;BME280;37545;45.302;-122.946;2023-05-25T00:12:54;100743.59;;;27.28;29.48
51468;BME280;37545;45.302;-122.946;2023-05-25T00:15:23;100743.72;;;27.25;30.33
51468;BME280;37545;45.302;-122.946;2023-05-25T00:17:53;100726.69;;;27.07;30.75
51468;BME280;37545;45.302;-122.946;2023-05-25T00:20:22;100737.44;;;27.04;30.30
51468;BME280;37545;45.302;-122.946;2023-05-25T00:22:51;100734.13;;;26.99;29.82
51468;BME280;37545;45.302;-122.946;2023-05-25T00:25:21;100726.00;;;27.02;31.25
51468;BME280;37545;45.302;-122.946;2023-05-25T00:27:50;100730.47;;;27.01;30.03
51468;BME280;37545;45.302;-122.946;2023-05-25T00:30:18;100722.56;;;27.00;30.67
51468;BME280;37545;45.302;-122.946;2023-05-25T00:32:47;100719.94;;;26.98;29.62
51468;BME280;37545;45.302;-122.946;2023-05-25T00:35:18;100721.06;;;26.92;30.68
51468;BME280;37545;45.302;-122.946;2023-05-25T00:37:47;100719.22;;;26.94;30.04
51468;BME280;37545;45.302;-122.946;2023-05-25T00:40:18;100713.09;;;26.92;30.59
51468;BME280;37545;45.302;-122.946;2023-05-25T00:42:47;100713.06;;;26.94;30.29
51468;BME280;37545;45.302;-122.946;2023-05-25T00:45:16;100706.31;;;26.85;30.24
51468;BME280;37545;45.302;-122.946;2023-05-25T00:47:44;100709.06;;;26.82;30.34
51468;BME280;37545;45.302;-122.946;2023-05-25T00:50:26;100694.88;;;26.83;29.35
51468;BME280;37545;45.302;-122.946;2023-05-25T00:53:04;100699.69;;;26.73;28.72
51468;BME280;37545;45.302;-122.946;2023-05-25T00:55:35;100690.06;;;26.71;29.19
51468;BME280;37545;45.302;-122.946;2023-05-25T00:58:04;100687.63;;;26.65;30.44
51468;BME280;37545;45.302;-122.946;2023-05-25T01:00:36;100688.63;;;26.62;29.39
51468;BME280;37545;45.302;-122.946;2023-05-25T01:03:14;100688.00;;;26.54;30.60
51468;BME280;37545;45.302;-122.946;2023-05-25T01:05:50;100694.19;;;26.54;30.62
51468;BME280;37545;45.302;-122.946;2023-05-25T01:08:19;100680.09;;;26.52;30.06
51468;BME280;37545;45.302;-122.946;2023-05-25T01:10:51;100687.13;;;26.55;30.50
51468;BME280;37545;45.302;-122.946;2023-05-25T01:13:26;100686.53;;;26.45;30.88
51468;BME280;37545;45.302;-122.946;2023-05-25T01:15:56;100683.91;;;26.45;30.80
51468;BME280;37545;45.302;-122.946;2023-05-25T01:18:25;100676.41;;;26.33;31.05
51468;BME280;37545;45.302;-122.946;2023-05-25T01:20:58;100681.06;;;26.26;31.34
51468;BME280;37545;45.302;-122.946;2023-05-25T01:23:46;100680.34;;;26.23;31.60
51468;BME280;37545;45.302;-122.946;2023-05-25T01:26:20;100676.16;;;26.16;30.24
51468;BME280;37545;45.302;-122.946;2023-05-25T01:28:52;100669.25;;;26.11;30.51
51468;BME280;37545;45.302;-122.946;2023-05-25T01:31:24;100677.38;;;26.07;30.75
51468;BME280;37545;45.302;-122.946;2023-05-25T01:33:53;100674.00;;;26.02;30.43
51468;BME280;37545;45.302;-122.946;2023-05-25T01:36:23;100665.41;;;25.95;31.58
51468;BME280;37545;45.302;-122.946;2023-05-25T01:38:52;100670.78;;;25.94;32.09
51468;BME280;37545;45.302;-122.946;2023-05-25T01:41:21;100660.25;;;25.90;31.78
51468;BME280;37545;45.302;-122.946;2023-05-25T01:43:49;100662.19;;;25.87;31.94
51468;BME280;37545;45.302;-122.946;2023-05-25T01:46:23;100665.94;;;25.80;31.50
51468;BME280;37545;45.302;-122.946;2023-05-25T01:48:59;100662.63;;;25.73;31.11
51468;BME280;37545;45.302;-122.946;2023-05-25T01:51:41;100661.94;;;25.68;31.35
51468;BME280;37545;45.302;-122.946;2023-05-25T01:54:15;100662.13;;;25.62;32.06
51468;BME280;37545;45.302;-122.946;2023-05-25T01:56:47;100662.41;;;25.54;31.27
51468;BME280;37545;45.302;-122.946;2023-05-25T01:59:20;100662.66;;;25.46;32.20
51468;BME280;37545;45.302;-122.946;2023-05-25T02:01:48;100661.94;;;25.41;31.30
51468;BME280;37545;45.302;-122.946;2023-05-25T02:04:18;100663.94;;;25.35;32.12
51468;BME280;37545;45.302;-122.946;2023-05-25T02:06:50;100670.22;;;25.31;32.64
51468;BME280;37545;45.302;-122.946;2023-05-25T02:09:19;100661.69;;;25.22;32.88
51468;BME280;37545;45.302;-122.946;2023-05-25T02:11:48;100671.50;;;25.19;32.92
51468;BME280;37545;45.302;-122.946;2023-05-25T02:14:17;100669.09;;;25.11;32.65
51468;BME280;37545;45.302;-122.946;2023-05-25T02:16:45;100675.50;;;25.04;33.16
51468;BME280;37545;45.302;-122.946;2023-05-25T02:19:14;100685.34;;;24.99;33.79
51468;BME280;37545;45.302;-122.946;2023-05-25T02:21:43;100679.50;;;24.87;34.29
51468;BME280;37545;45.302;-122.946;2023-05-25T02:24:13;100684.94;;;24.83;33.97
51468;BME280;37545;45.302;-122.946;2023-05-25T02:26:42;100690.47;;;24.75;34.42
51468;BME280;37545;45.302;-122.946;2023-05-25T02:29:10;100694.25;;;24.66;34.92
51468;BME280;37545;45.302;-122.946;2023-05-25T02:31:39;100689.22;;;24.59;34.78
51468;BME280;37545;45.302;-122.946;2023-05-25T02:34:07;100686.84;;;24.50;35.18
51468;BME280;37545;45.302;-122.946;2023-05-25T02:36:37;100691.50;;;24.40;35.34
51468;BME280;37545;45.302;-122.946;2023-05-25T02:39:09;100688.22;;;24.30;34.23
51468;BME280;37545;45.302;-122.946;2023-05-25T02:41:39;100691.25;;;24.18;35.43
51468;BME280;37545;45.302;-122.946;2023-05-25T02:44:08;100700.25;;;24.11;35.60
51468;BME280;37545;45.302;-122.946;2023-05-25T02:46:36;100697.84;;;24.01;35.46
51468;BME280;37545;45.302;-122.946;2023-05-25T02:49:05;100700.66;;;23.95;35.91
51468;BME280;37545;45.302;-122.946;2023-05-25T02:51:33;100699.09;;;23.88;35.63
51468;BME280;37545;45.302;-122.946;2023-05-25T02:54:02;100700.25;;;23.78;35.74
51468;BME280;37545;45.302;-122.946;2023-05-25T02:56:31;100697.72;;;23.72;35.59
51468;BME280;37545;45.302;-122.946;2023-05-25T02:59:01;100701.50;;;23.61;35.13
51468;BME280;37545;45.302;-122.946;2023-05-25T03:01:30;100699.16;;;23.51;35.57
51468;BME280;37545;45.302;-122.946;2023-05-25T03:04:00;100703.72;;;23.44;35.81
51468;BME280;37545;45.302;-122.946;2023-05-25T03:06:28;100707.41;;;23.37;36.29
51468;BME280;37545;45.302;-122.946;2023-05-25T03:08:57;100705.00;;;23.28;36.50
51468;BME280;37545;45.302;-122.946;2023-05-25T03:11:25;100701.66;;;23.19;36.74
51468;BME280;37545;45.302;-122.946;2023-05-25T03:13:54;100720.34;;;23.10;36.26
51468;BME280;37545;45.302;-122.946;2023-05-25T03:16:24;100715.28;;;23.01;37.14
51468;BME280;37545;45.302;-122.946;2023-05-25T03:18:53;100718.94;;;22.92;36.84
51468;BME280;37545;45.302;-122.946;2023-05-25T03:21:21;100724.47;;;22.82;37.18
51468;BME280;37545;45.302;-122.946;2023-05-25T03:23:50;100724.69;;;22.72;37.40
51468;BME280;37545;45.302;-122.946;2023-05-25T03:26:18;100727.53;;;22.62;38.04
51468;BME280;37545;45.302;-122.946;2023-05-25T03:28:47;100722.44;;;22.52;38.30
51468;BME280;37545;45.302;-122.946;2023-05-25T03:31:15;100725.28;;;22.42;38.68
51468;BME280;37545;45.302;-122.946;2023-05-25T03:33:45;100731.59;;;22.34;38.68
51468;BME280;37545;45.302;-122.946;2023-05-25T03:36:14;100728.22;;;22.26;38.28
51468;BME280;37545;45.302;-122.946;2023-05-25T03:38:43;100726.63;;;22.17;38.52
51468;BME280;37545;45.302;-122.946;2023-05-25T03:41:12;100724.97;;;22.10;39.20
51468;BME280;37545;45.302;-122.946;2023-05-25T03:43:40;100729.50;;;22.04;39.05
51468;BME280;37545;45.302;-122.946;2023-05-25T03:46:09;100733.13;;;21.96;39.25
51468;BME280;37545;45.302;-122.946;2023-05-25T03:48:38;100735.91;;;21.87;39.59
51468;BME280;37545;45.302;-122.946;2023-05-25T03:51:08;100735.19;;;21.79;40.71
51468;BME280;37545;45.302;-122.946;2023-05-25T03:53:36;100744.97;;;21.71;40.07
51468;BME280;37545;45.302;-122.946;2023-05-25T03:56:06;100739.00;;;21.63;40.17
51468;BME280;37545;45.302;-122.946;2023-05-25T03:58:34;100742.59;;;21.57;40.18
51468;BME280;37545;45.302;-122.946;2023-05-25T04:01:03;100734.81;;;21.51;40.92
51468;BME280;37545;45.302;-122.946;2023-05-25T04:03:31;100733.13;;;21.45;40.47
51468;BME280;37545;45.302;-122.946;2023-05-25T04:06:00;100737.59;;;21.40;40.91
51468;BME280;37545;45.302;-122.946;2023-05-25T04:08:30;100740.28;;;21.32;41.07
51468;BME280;37545;45.302;-122.946;2023-05-25T04:10:59;100753.56;;;21.25;42.36
51468;BME280;37545;45.302;-122.946;2023-05-25T04:13:27;100756.34;;;21.16;42.27
51468;BME280;37545;45.302;-122.946;2023-05-25T04:15:56;100753.81;;;21.08;42.15
51468;BME280;37545;45.302;-122.946;2023-05-25T04:18:25;100760.94;;;21.01;42.19
51468;BME280;37545;45.302;-122.946;2023-05-25T04:20:54;100769.75;;;20.97;42.41
51468;BME280;37545;45.302;-122.946;2023-05-25T04:23:22;100766.31;;;20.92;42.54
51468;BME280;37545;45.302;-122.946;2023-05-25T04:25:53;100769.88;;;20.88;42.69
51468;BME280;37545;45.302;-122.946;2023-05-25T04:28:21;100775.16;;;20.85;43.12
51468;BME280;37545;45.302;-122.946;2023-05-25T04:30:49;100783.97;;;20.82;43.16
51468;BME280;37545;45.302;-122.946;2023-05-25T04:33:22;100783.13;;;20.77;43.66
51468;BME280;37545;45.302;-122.946;2023-05-25T04:35:56;100785.84;;;20.71;44.14
51468;BME280;37545;45.302;-122.946;2023-05-25T04:38:25;100785.91;;;20.66;44.52
51468;BME280;37545;45.302;-122.946;2023-05-25T04:40:57;100786.88;;;20.59;44.69
51468;BME280;37545;45.302;-122.946;2023-05-25T04:43:27;100790.41;;;20.54;45.19
51468;BME280;37545;45.302;-122.946;2023-05-25T04:45:57;100787.81;;;20.49;45.26
51468;BME280;37545;45.302;-122.946;2023-05-25T04:48:26;100788.78;;;20.43;45.46
51468;BME280;37545;45.302;-122.946;2023-05-25T04:50:57;100789.69;;;20.38;46.16
51468;BME280;37545;45.302;-122.946;2023-05-25T04:53:28;100798.53;;;20.30;46.17
51468;BME280;37545;45.302;-122.946;2023-05-25T04:55:59;100795.09;;;20.22;46.38
51468;BME280;37545;45.302;-122.946;2023-05-25T04:58:27;100798.66;;;20.15;46.51
51468;BME280;37545;45.302;-122.946;2023-05-25T05:00:56;100801.38;;;20.07;46.77
51468;BME280;37545;45.302;-122.946;2023-05-25T05:03:24;100804.06;;;20.00;47.62
51468;BME280;37545;45.302;-122.946;2023-05-25T05:05:53;100805.00;;;19.91;47.36
51468;BME280;37545;45.302;-122.946;2023-05-25T05:08:22;100805.94;;;19.84;47.55
51468;BME280;37545;45.302;-122.946;2023-05-25T05:10:50;100803.34;;;19.79;47.59
51468;BME280;37545;45.302;-122.946;2023-05-25T05:13:21;100806.03;;;19.73;48.11
51468;BME280;37545;45.302;-122.946;2023-05-25T05:15:49;100811.31;;;19.70;47.99
51468;BME280;37545;45.302;-122.946;2023-05-25T05:18:19;100807.78;;;19.66;48.15
51468;BME280;37545;45.302;-122.946;2023-05-25T05:20:48;100801.69;;;19.61;48.06
51468;BME280;37545;45.302;-122.946;2023-05-25T05:23:16;100802.59;;;19.56;47.77
51468;BME280;37545;45.302;-122.946;2023-05-25T05:25:45;100799.16;;;19.49;48.52
51468;BME280;37545;45.302;-122.946;2023-05-25T05:28:13;100800.94;;;19.44;48.35
51468;BME280;37545;45.302;-122.946;2023-05-25T05:30:50;100807.97;;;19.37;49.38
51468;BME280;37545;45.302;-122.946;2023-05-25T05:33:18;100791.44;;;19.23;50.68
51468;BME280;37545;45.302;-122.946;2023-05-25T05:35:49;100797.59;;;19.22;51.04
51468;BME280;37545;45.302;-122.946;2023-05-25T05:38:17;100801.09;;;19.10;51.02
51468;BME280;37545;45.302;-122.946;2023-05-25T05:40:46;100805.53;;;19.02;50.57
51468;BME280;37545;45.302;-122.946;2023-05-25T05:43:15;100801.19;;;18.93;50.82
51468;BME280;37545;45.302;-122.946;2023-05-25T05:45:43;100805.59;;;18.85;52.95
51468;BME280;37545;45.302;-122.946;2023-05-25T05:48:14;100807.38;;;18.78;52.59
51468;BME280;37545;45.302;-122.946;2023-05-25T05:50:42;100804.75;;;18.71;51.61
51468;BME280;37545;45.302;-122.946;2023-05-25T05:53:11;100805.63;;;18.67;52.95
51468;BME280;37545;45.302;-122.946;2023-05-25T05:55:40;100807.41;;;18.57;52.27
51468;BME280;37545;45.302;-122.946;2023-05-25T05:58:08;100804.78;;;18.52;52.63
51468;BME280;37545;45.302;-122.946;2023-05-25T06:00:37;100804.81;;;18.49;52.25
51468;BME280;37545;45.302;-122.946;2023-05-25T06:03:06;100803.94;;;18.47;51.96
51468;BME280;37545;45.302;-122.946;2023-05-25T06:05:36;100806.56;;;18.44;52.98
51468;BME280;37545;45.302;-122.946;2023-05-25T06:08:04;100806.56;;;18.38;52.76
51468;BME280;37545;45.302;-122.946;2023-05-25T06:10:34;100806.59;;;18.29;53.89
51468;BME280;37545;45.302;-122.946;2023-05-25T06:13:03;100799.63;;;18.21;53.49
51468;BME280;37545;45.302;-122.946;2023-05-25T06:15:34;100802.25;;;18.17;53.74
51468;BME280;37545;45.302;-122.946;2023-05-25T06:18:02;100802.22;;;18.14;53.58
51468;BME280;37545;45.302;-122.946;2023-05-25T06:20:31;100799.63;;;18.06;54.81
51468;BME280;37545;45.302;-122.946;2023-05-25T06:23:02;100796.13;;;17.98;54.11
51468;BME280;37545;45.302;-122.946;2023-05-25T06:25:30;100790.03;;;17.93;54.38
51468;BME280;37545;45.302;-122.946;2023-05-25T06:27:59;100793.53;;;17.90;54.81
51468;BME280;37545;45.302;-122.946;2023-05-25T06:30:27;100780.38;;;17.79;56.14
51468;BME280;37545;45.302;-122.946;2023-05-25T06:32:56;100790.84;;;17.79;54.86
51468;BME280;37545;45.302;-122.946;2023-05-25T06:35:25;100790.00;;;17.74;56.47
51468;BME280;37545;45.302;-122.946;2023-05-25T06:37:53;100791.75;;;17.69;56.31
51468;BME280;37545;45.302;-122.946;2023-05-25T06:40:23;100786.50;;;17.65;56.14
51468;BME280;37545;45.302;-122.946;2023-05-25T06:42:52;100789.13;;;17.57;56.39
51468;BME280;37545;45.302;-122.946;2023-05-25T06:45:21;100781.25;;;17.48;56.13
51468;BME280;37545;45.302;-122.946;2023-05-25T06:47:50;100781.22;;;17.45;55.36
51468;BME280;37545;45.302;-122.946;2023-05-25T06:50:18;100779.50;;;17.39;55.74
51468;BME280;37545;45.302;-122.946;2023-05-25T06:52:47;100786.44;;;17.35;57.17
51468;BME280;37545;45.302;-122.946;2023-05-25T06:55:16;100785.56;;;17.30;57.13
51468;BME280;37545;45.302;-122.946;2023-05-25T06:57:46;100778.59;;;17.23;58.57
51468;BME280;37545;45.302;-122.946;2023-05-25T07:00:16;100782.06;;;17.19;58.31
51468;BME280;37545;45.302;-122.946;2023-05-25T07:02:45;100776.81;;;17.10;59.27
51468;BME280;37545;45.302;-122.946;2023-05-25T07:05:14;100777.66;;;17.07;58.69
51468;BME280;37545;45.302;-122.946;2023-05-25T07:07:42;100780.28;;;17.04;57.53
51468;BME280;37545;45.302;-122.946;2023-05-25T07:10:11;100759.28;;;16.90;58.43
51468;BME280;37545;45.302;-122.946;2023-05-25T07:12:40;100775.00;;;16.96;58.04
51468;BME280;37545;45.302;-122.946;2023-05-25T07:15:11;100773.25;;;16.92;58.45
51468;BME280;37545;45.302;-122.946;2023-05-25T07:17:40;100768.88;;;16.90;57.82
51468;BME280;37545;45.302;-122.946;2023-05-25T07:20:09;100776.72;;;16.88;57.68
51468;BME280;37545;45.302;-122.946;2023-05-25T07:22:41;100779.34;;;16.88;57.47
51468;BME280;37545;45.302;-122.946;2023-05-25T07:25:10;100774.97;;;16.87;58.33
51468;BME280;37545;45.302;-122.946;2023-05-25T07:27:39;100773.22;;;16.83;57.96
51468;BME280;37545;45.302;-122.946;2023-05-25T07:30:10;100774.06;;;16.81;58.46
51468;BME280;37545;45.302;-122.946;2023-05-25T07:32:39;100776.63;;;16.76;58.71
51468;BME280;37545;45.302;-122.946;2023-05-25T07:35:08;100781.88;;;16.74;58.88
51468;BME280;37545;45.302;-122.946;2023-05-25T07:37:36;100774.00;;;16.71;57.48
51468;BME280;37545;45.302;-122.946;2023-05-25T07:40:06;100783.59;;;16.68;59.43
51468;BME280;37545;45.302;-122.946;2023-05-25T07:42:35;100777.44;;;16.60;59.04
51468;BME280;37545;45.302;-122.946;2023-05-25T07:45:04;100778.28;;;16.57;59.65
51468;BME280;37545;45.302;-122.946;2023-05-25T07:47:34;100779.16;;;16.54;60.05
51468;BME280;37545;45.302;-122.946;2023-05-25T07:50:04;100787.84;;;16.53;59.26
51468;BME280;37545;45.302;-122.946;2023-05-25T07:52:33;100787.81;;;16.46;59.15
51468;BME280;37545;45.302;-122.946;2023-05-25T07:55:04;100786.88;;;16.36;60.06
51468;BME280;37545;45.302;-122.946;2023-05-25T07:57:33;100785.97;;;16.29;61.84
51468;BME280;37545;45.302;-122.946;2023-05-25T08:00:03;100779.84;;;16.26;60.33
51468;BME280;37545;45.302;-122.946;2023-05-25T08:02:35;100771.13;;;16.24;59.29
51468;BME280;37545;45.302;-122.946;2023-05-25T08:05:04;100778.09;;;16.22;59.19
51468;BME280;37545;45.302;-122.946;2023-05-25T08:07:33;100774.59;;;16.21;59.66
51468;BME280;37545;45.302;-122.946;2023-05-25T08:10:03;100782.44;;;16.20;59.59
51468;BME280;37545;45.302;-122.946;2023-05-25T08:12:32;100780.63;;;16.14;59.52
51468;BME280;37545;45.302;-122.946;2023-05-25T08:15:01;100778.91;;;16.13;60.13
51468;BME280;37545;45.302;-122.946;2023-05-25T08:17:29;100778.00;;;16.11;59.69
51468;BME280;37545;45.302;-122.946;2023-05-25T08:19:59;100776.25;;;16.08;59.58
51468;BME280;37545;45.302;-122.946;2023-05-25T08:22:31;100774.50;;;16.07;59.98
51468;BME280;37545;45.302;-122.946;2023-05-25T08:24:59;100773.63;;;16.04;58.98
51468;BME280;37545;45.302;-122.946;2023-05-25T08:27:28;100774.47;;;16.01;59.91
51468;BME280;37545;45.302;-122.946;2023-05-25T08:29:57;100772.69;;;15.97;59.77
51468;BME280;37545;45.302;-122.946;2023-05-25T08:32:25;100768.28;;;15.91;60.94
51468;BME280;37545;45.302;-122.946;2023-05-25T08:34:54;100763.91;;;15.86;60.78
51468;BME280;37545;45.302;-122.946;2023-05-25T08:37:24;100756.91;;;15.85;60.56
51468;BME280;37545;45.302;-122.946;2023-05-25T08:39:53;100762.13;;;15.85;60.38
51468;BME280;37545;45.302;-122.946;2023-05-25T08:42:21;100754.31;;;15.83;60.50
51468;BME280;37545;45.302;-122.946;2023-05-25T08:44:50;100756.00;;;15.80;60.76
51468;BME280;37545;45.302;-122.946;2023-05-25T08:47:21;100761.19;;;15.75;60.84
51468;BME280;37545;45.302;-122.946;2023-05-25T08:49:50;100761.94;;;15.66;62.23
51468;BME280;37545;45.302;-122.946;2023-05-25T08:52:23;100760.16;;;15.59;61.83
51468;BME280;37545;45.302;-122.946;2023-05-25T08:55:01;100760.09;;;15.52;62.19
51468;BME280;37545;45.302;-122.946;2023-05-25T08:57:36;100757.44;;;15.47;61.84
51468;BME280;37545;45.302;-122.946;2023-05-25T09:00:08;100754.81;;;15.44;62.65
51468;BME280;37545;45.302;-122.946;2023-05-25T09:02:42;100746.06;;;15.40;63.21
51468;BME280;37545;45.302;-122.946;2023-05-25T09:05:13;100747.75;;;15.34;63.72
51468;BME280;37545;45.302;-122.946;2023-05-25T09:07:44;100752.94;;;15.31;63.18
51468;BME280;37545;45.302;-122.946;2023-05-25T09:10:13;100743.31;;;15.23;64.85
51468;BME280;37545;45.302;-122.946;2023-05-25T09:12:43;100751.94;;;15.19;65.53
51468;BME280;37545;45.302;-122.946;2023-05-25T09:15:12;100756.28;;;15.17;65.75
51468;BME280;37545;45.302;-122.946;2023-05-25T09:17:40;100757.09;;;15.13;65.39
51468;BME280;37545;45.302;-122.946;2023-05-25T09:20:10;100753.63;;;15.13;65.59
51468;BME280;37545;45.302;-122.946;2023-05-25T09:22:40;100753.59;;;15.11;64.52
51468;BME280;37545;45.302;-122.946;2023-05-25T09:25:11;100756.19;;;15.11;64.98
51468;BME280;37545;45.302;-122.946;2023-05-25T09:27:41;100747.47;;;15.09;66.31
51468;BME280;37545;45.302;-122.946;2023-05-25T09:30:10;100744.81;;;15.01;66.17
51468;BME280;37545;45.302;-122.946;2023-05-25T09:32:39;100743.00;;;14.97;66.06
51468;BME280;37545;45.302;-122.946;2023-05-25T09:35:08;100745.63;;;14.96;65.52
51468;BME280;37545;45.302;-122.946;2023-05-25T09:37:37;100737.81;;;14.97;65.79
51468;BME280;37545;45.302;-122.946;2023-05-25T09:40:07;100742.13;;;14.94;65.93
51468;BME280;37545;45.302;-122.946;2023-05-25T09:42:37;100728.19;;;14.92;66.88
51468;BME280;37545;45.302;-122.946;2023-05-25T09:45:07;100735.06;;;14.85;66.64
51468;BME280;37545;45.302;-122.946;2023-05-25T09:47:36;100724.63;;;14.83;66.00
51468;BME280;37545;45.302;-122.946;2023-05-25T09:50:05;100729.84;;;14.83;67.18
51468;BME280;37545;45.302;-122.946;2023-05-25T09:52:35;100726.34;;;14.81;67.59
51468;BME280;37545;45.302;-122.946;2023-05-25T09:55:08;100733.25;;;14.79;67.81
51468;BME280;37545;45.302;-122.946;2023-05-25T09:57:39;100731.50;;;14.77;67.88
51468;BME280;37545;45.302;-122.946;2023-05-25T10:00:17;100727.09;;;14.71;68.93
51468;BME280;37545;45.302;-122.946;2023-05-25T10:02:45;100733.13;;;14.67;69.27
51468;BME280;37545;45.302;-122.946;2023-05-25T10:05:14;100733.09;;;14.65;69.41
51468;BME280;37545;45.302;-122.946;2023-05-25T10:07:44;100730.44;;;14.62;70.26
51468;BME280;37545;45.302;-122.946;2023-05-25T10:10:13;100735.63;;;14.59;71.18
51468;BME280;37545;45.302;-122.946;2023-05-25T10:12:44;100731.16;;;14.54;70.89
51468;BME280;37545;45.302;-122.946;2023-05-25T10:15:15;100738.13;;;14.53;71.09
51468;BME280;37545;45.302;-122.946;2023-05-25T10:17:51;100740.69;;;14.52;71.33
51468;BME280;37545;45.302;-122.946;2023-05-25T10:20:21;100731.06;;;14.44;71.27
51468;BME280;37545;45.302;-122.946;2023-05-25T10:22:53;100732.88;;;14.50;71.53
51468;BME280;37545;45.302;-122.946;2023-05-25T10:25:26;100740.66;;;14.49;71.60
51468;BME280;37545;45.302;-122.946;2023-05-25T10:28:01;100738.94;;;14.49;71.71
51468;BME280;37545;45.302;-122.946;2023-05-25T10:30:30;100744.09;;;14.46;73.11
51468;BME280;37545;45.302;-122.946;2023-05-25T10:33:02;100741.44;;;14.41;73.32
51468;BME280;37545;45.302;-122.946;2023-05-25T10:35:32;100739.66;;;14.40;72.70
51468;BME280;37545;45.302;-122.946;2023-05-25T10:38:02;100741.38;;;14.38;73.61
51468;BME280;37545;45.302;-122.946;2023-05-25T10:40:32;100737.91;;;14.36;74.14
51468;BME280;37545;45.302;-122.946;2023-05-25T10:43:04;100738.72;;;14.32;74.46
51468;BME280;37545;45.302;-122.946;2023-05-25T10:45:34;100741.25;;;14.29;74.64
51468;BME280;37545;45.302;-122.946;2023-05-25T10:48:03;100734.25;;;14.23;75.08
51468;BME280;37545;45.302;-122.946;2023-05-25T10:50:34;100737.56;;;14.15;76.65
51468;BME280;37545;45.302;-122.946;2023-05-25T10:53:05;100739.22;;;14.07;77.96
51468;BME280;37545;45.302;-122.946;2023-05-25T10:55:47;100746.09;;;14.03;77.92
51468;BME280;37545;45.302;-122.946;2023-05-25T10:58:20;100746.00;;;13.98;77.96
51468;BME280;37545;45.302;-122.946;2023-05-25T11:00:57;100746.75;;;13.90;77.29
51468;BME280;37545;45.302;-122.946;2023-05-25T11:03:48;100745.75;;;13.83;76.94
51468;BME280;37545;45.302;-122.946;2023-05-25T11:06:18;100736.97;;;13.75;77.15
51468;BME280;37545;45.302;-122.946;2023-05-25T11:08:53;100736.91;;;13.72;76.84
51468;BME280;37545;45.302;-122.946;2023-05-25T11:11:22;100743.81;;;13.70;77.53
51468;BME280;37545;45.302;-122.946;2023-05-25T11:14:28;100740.16;;;13.57;78.06
51468;BME280;37545;45.302;-122.946;2023-05-25T11:17:06;100743.56;;;13.54;78.46
51468;BME280;37545;45.302;-122.946;2023-05-25T11:19:40;100743.50;;;13.51;78.92
51468;BME280;37545;45.302;-122.946;2023-05-25T11:22:16;100733.03;;;13.45;78.44
51468;BME280;37545;45.302;-122.946;2023-05-25T11:24:50;100736.41;;;13.41;77.98
51468;BME280;37545;45.302;-122.946;2023-05-25T11:27:22;100737.22;;;13.38;77.93
51468;BME280;37545;45.302;-122.946;2023-05-25T11:29:53;100737.16;;;13.34;78.08
51468;BME280;37545;45.302;-122.946;2023-05-25T11:32:22;100738.88;;;13.33;77.10
51468;BME280;37545;45.302;-122.946;2023-05-25T11:34:52;100746.63;;;13.32;77.60
51468;BME280;37545;45.302;-122.946;2023-05-25T11:37:22;100738.78;;;13.29;77.35
51468;BME280;37545;45.302;-122.946;2023-05-25T11:39:51;100736.13;;;13.27;78.25
51468;BME280;37545;45.302;-122.946;2023-05-25T11:42:21;100732.63;;;13.25;77.88
51468;BME280;37545;45.302;-122.946;2023-05-25T11:44:52;100732.50;;;13.17;77.71
51468;BME280;37545;45.302;-122.946;2023-05-25T11:47:21;100736.78;;;13.15;78.06
51468;BME280;37545;45.302;-122.946;2023-05-25T11:49:50;100728.03;;;13.12;78.02
51468;BME280;37545;45.302;-122.946;2023-05-25T11:52:19;100724.44;;;13.04;78.96
51468;BME280;37545;45.302;-122.946;2023-05-25T11:54:55;100722.56;;;12.96;79.64
51468;BME280;37545;45.302;-122.946;2023-05-25T11:57:24;100731.16;;;12.92;79.34
51468;BME280;37545;45.302;-122.946;2023-05-25T11:59:55;100733.72;;;12.91;79.41
51468;BME280;37545;45.302;-122.946;2023-05-25T12:02:26;100744.09;;;12.91;79.64
51468;BME280;37545;45.302;-122.946;2023-05-25T12:04:56;100739.75;;;12.90;79.63
51468;BME280;37545;45.302;-122.946;2023-05-25T12:07:25;100737.09;;;12.87;80.42
51468;BME280;37545;45.302;-122.946;2023-05-25T12:10:04;100725.72;;;12.82;81.28
51468;BME280;37545;45.302;-122.946;2023-05-25T12:12:40;100725.66;;;12.77;81.80
51468;BME280;37545;45.302;-122.946;2023-05-25T12:15:13;100728.19;;;12.74;82.24
51468;BME280;37545;45.302;-122.946;2023-05-25T12:17:43;100726.28;;;12.65;81.91
51468;BME280;37545;45.302;-122.946;2023-05-25T12:20:14;100727.97;;;12.63;81.74
51468;BME280;37545;45.302;-122.946;2023-05-25T12:22:44;100728.81;;;12.64;81.10
51468;BME280;37545;45.302;-122.946;2023-05-25T12:25:14;100732.25;;;12.61;81.26
51468;BME280;37545;45.302;-122.946;2023-05-25T12:27:46;100727.81;;;12.57;82.31
51468;BME280;37545;45.302;-122.946;2023-05-25T12:30:16;100729.50;;;12.55;82.17
51468;BME280;37545;45.302;-122.946;2023-05-25T12:32:54;100722.63;;;12.55;81.89
51468;BME280;37545;45.302;-122.946;2023-05-25T12:35:27;100726.91;;;12.55;82.08